Terminal Aerodrome Forecast
Issued by NWS Cleveland, OH

Home | Current Version | Previous Version | Graphics & Text | Print | Product List | Glossary On
Versions: 1 2 3 4 5 6 7 8 9 10 11 12 13 14 15 16 17 18 19 20 21 22 23 24 25 26
000
FTUS41 KCLE 271700
TAFCLE
TAF
KCLE 271738Z 2718/2824 17012G20KT P6SM BKN250
     FM280000 18012KT P6SM BKN150 WS020/23045KT
     FM281400 19012G22KT P6SM BKN040
     FM281700 22015G25KT 6SM -SHRA VCTS BKN030CB OVC050
     FM281900 25015G25KT P6SM -SHRA BKN025=

USA.gov is the U.S. government's official web portal to all federal, state and local government web resources and services.